Time,TemperatureF,DewpointF,PressureIn,WindDirection,WindDirectionDegrees,WindSpeedMPH,WindSpeedGustMPH,Humidity,HourlyPrecipIn,Conditions,Clouds,dailyrainin,SoftwareType,DateUTC
2013-04-02 00:00:00,26.5,17.3,30.22,NNE,23,0.7,1.1,68,0.00,,,0.00,WUHU216HW,2013-04-02 05:00:00,
2013-04-02 00:05:00,26.3,17.5,30.21,NNE,23,0.0,1.1,69,0.00,,,0.00,WUHU216HW,2013-04-02 05:05:00,
2013-04-02 00:10:00,26.3,17.5,30.21,NNE,23,0.0,0.7,69,0.00,,,0.00,WUHU216HW,2013-04-02 05:10:00,
2013-04-02 00:15:00,26.3,17.8,30.21,NNE,23,0.0,0.0,70,0.00,,,0.00,WUHU216HW,2013-04-02 05:15:00,
2013-04-02 00:20:00,26.3,18.1,30.21,NNE,23,0.0,0.0,71,0.00,,,0.00,WUHU216HW,2013-04-02 05:20:00,
2013-04-02 00:25:00,26.3,17.8,30.21,NNE,23,0.0,0.0,70,0.00,,,0.00,WUHU216HW,2013-04-02 05:25:00,
2013-04-02 00:30:00,26.3,18.5,30.21,NNE,23,0.0,0.0,72,0.00,,,0.00,WUHU216HW,2013-04-02 05:30:00,
2013-04-02 00:35:00,26.5,18.9,30.21,NNE,23,0.0,0.4,73,0.00,,,0.00,WUHU216HW,2013-04-02 05:35:00,
2013-04-02 00:40:00,26.5,18.9,30.21,NNE,23,0.0,0.4,73,0.00,,,0.00,WUHU216HW,2013-04-02 05:40:00,
2013-04-02 00:45:00,26.3,19.1,30.21,NNE,23,0.0,0.0,74,0.00,,,0.00,WUHU216HW,2013-04-02 05:45:00,
2013-04-02 00:50:00,26.1,18.3,30.21,NNE,23,0.0,0.4,72,0.00,,,0.00,WUHU216HW,2013-04-02 05:50:00,
2013-04-02 00:55:00,25.6,17.7,30.21,NNE,23,0.0,0.4,72,0.00,,,0.00,WUHU216HW,2013-04-02 05:55:00,
2013-04-02 01:00:00,25.2,17.4,30.21,NNE,23,0.0,0.0,72,0.00,,,0.00,WUHU216HW,2013-04-02 06:00:00,
2013-04-02 01:05:00,24.8,16.8,30.21,NNE,23,0.0,0.0,71,0.00,,,0.00,WUHU216HW,2013-04-02 06:05:00,
2013-04-02 01:10:00,24.7,16.6,30.20,NNE,23,0.0,0.0,71,0.00,,,0.00,WUHU216HW,2013-04-02 06:10:00,
2013-04-02 01:15:00,24.5,16.4,30.20,NNE,23,0.0,0.0,71,0.00,,,0.00,WUHU216HW,2013-04-02 06:15:00,
2013-04-02 01:20:00,24.5,16.8,30.20,NNE,23,0.0,0.0,72,0.00,,,0.00,WUHU216HW,2013-04-02 06:20:00,
2013-04-02 01:25:00,24.3,16.6,30.20,NNE,23,0.0,0.0,72,0.00,,,0.00,WUHU216HW,2013-04-02 06:25:00,
2013-04-02 01:30:00,24.1,16.4,30.21,NNE,23,0.0,0.0,72,0.00,,,0.00,WUHU216HW,2013-04-02 06:30:00,
2013-04-02 01:35:00,23.9,16.2,30.21,NNE,23,0.0,0.0,72,0.00,,,0.00,WUHU216HW,2013-04-02 06:35:00,
2013-04-02 01:40:00,23.6,15.8,30.20,NNE,23,0.0,0.0,72,0.00,,,0.00,WUHU216HW,2013-04-02 06:40:00,
2013-04-02 01:45:00,23.6,16.5,30.21,NNW,338,0.0,1.1,74,0.00,,,0.00,WUHU216HW,2013-04-02 06:45:00,
2013-04-02 01:50:00,23.6,16.2,30.21,NNW,338,0.0,1.1,73,0.00,,,0.00,WUHU216HW,2013-04-02 06:50:00,
2013-04-02 01:55:00,23.4,16.3,30.20,NNW,338,0.0,0.0,74,0.00,,,0.00,WUHU216HW,2013-04-02 06:55:00,
2013-04-02 02:00:00,23.4,16.3,30.20,NNW,338,0.0,0.0,74,0.00,,,0.00,WUHU216HW,2013-04-02 07:00:00,
2013-04-02 02:05:00,23.4,16.3,30.21,NNW,338,0.0,0.0,74,0.00,,,0.00,WUHU216HW,2013-04-02 07:05:00,
2013-04-02 02:10:00,23.4,16.7,30.20,NNW,338,0.0,0.0,75,0.00,,,0.00,WUHU216HW,2013-04-02 07:10:00,
2013-04-02 02:15:00,23.6,16.8,30.20,NNW,338,0.0,0.2,75,0.00,,,0.00,WUHU216HW,2013-04-02 07:15:00,
2013-04-02 02:20:00,23.9,18.4,30.20,NNW,338,0.0,0.2,79,0.00,,,0.00,WUHU216HW,2013-04-02 07:20:00,
2013-04-02 02:25:00,24.1,18.3,30.20,NNW,338,0.0,0.0,78,0.00,,,0.00,WUHU216HW,2013-04-02 07:25:00,
2013-04-02 02:30:00,23.9,17.8,30.20,NNW,338,0.0,0.0,77,0.00,,,0.00,WUHU216HW,2013-04-02 07:30:00,
2013-04-02 02:35:00,23.6,17.1,30.20,NNW,338,0.0,0.0,76,0.00,,,0.00,WUHU216HW,2013-04-02 07:35:00,
2013-04-02 02:40:00,23.2,16.7,30.20,NNW,338,0.0,0.0,76,0.00,,,0.00,WUHU216HW,2013-04-02 07:40:00,
2013-04-02 02:45:00,23.2,17.4,30.19,NNW,338,0.0,0.0,78,0.00,,,0.00,WUHU216HW,2013-04-02 07:45:00,
2013-04-02 02:50:00,23.4,17.9,30.19,NNW,338,0.0,0.0,79,0.00,,,0.00,WUHU216HW,2013-04-02 07:50:00,
2013-04-02 02:55:00,23.6,18.4,30.19,NNW,338,0.4,0.4,80,0.00,,,0.00,WUHU216HW,2013-04-02 07:55:00,
2013-04-02 03:00:00,23.8,17.9,30.19,NNW,338,0.0,0.4,78,0.00,,,0.00,WUHU216HW,2013-04-02 08:00:00,
2013-04-02 03:05:00,23.4,17.6,30.19,NNW,338,0.0,0.4,78,0.00,,,0.00,WUHU216HW,2013-04-02 08:05:00,
2013-04-02 03:10:00,23.4,17.3,30.19,NNW,338,0.0,0.0,77,0.00,,,0.00,WUHU216HW,2013-04-02 08:10:00,
2013-04-02 03:15:00,22.9,16.8,30.19,NNW,338,0.0,0.0,77,0.00,,,0.00,WUHU216HW,2013-04-02 08:15:00,
2013-04-02 03:20:00,22.7,16.8,30.19,NNW,338,0.0,0.0,78,0.00,,,0.00,WUHU216HW,2013-04-02 08:20:00,
2013-04-02 03:25:00,22.7,17.2,30.20,NNW,338,0.2,0.2,79,0.00,,,0.00,WUHU216HW,2013-04-02 08:25:00,
2013-04-02 03:30:00,22.9,17.6,30.20,NNW,338,0.0,0.4,80,0.00,,,0.00,WUHU216HW,2013-04-02 08:30:00,
2013-04-02 03:35:00,22.9,17.4,30.20,NNW,338,0.0,0.4,79,0.00,,,0.00,WUHU216HW,2013-04-02 08:35:00,
2013-04-02 03:40:00,22.7,16.8,30.19,NNW,338,0.0,0.0,78,0.00,,,0.00,WUHU216HW,2013-04-02 08:40:00,
2013-04-02 03:45:00,22.5,17.0,30.20,NNW,338,0.0,0.0,79,0.00,,,0.00,WUHU216HW,2013-04-02 08:45:00,
2013-04-02 03:50:00,22.5,17.0,30.19,NNW,338,0.0,0.0,79,0.00,,,0.00,WUHU216HW,2013-04-02 08:50:00,
2013-04-02 03:55:00,22.3,17.1,30.20,NNW,338,0.0,0.0,80,0.00,,,0.00,WUHU216HW,2013-04-02 08:55:00,
2013-04-02 04:00:00,22.5,17.3,30.20,NNW,338,0.0,0.0,80,0.00,,,0.00,WUHU216HW,2013-04-02 09:00:00,
2013-04-02 04:05:00,22.5,17.3,30.20,NNW,338,0.0,0.0,80,0.00,,,0.00,WUHU216HW,2013-04-02 09:05:00,
2013-04-02 04:10:00,22.5,17.0,30.20,NNW,338,0.0,0.0,79,0.00,,,0.00,WUHU216HW,2013-04-02 09:10:00,
2013-04-02 04:15:00,22.0,16.1,30.21,NNW,338,0.0,0.0,78,0.00,,,0.00,WUHU216HW,2013-04-02 09:15:00,
2013-04-02 04:20:00,21.6,15.8,30.20,NNW,338,0.0,0.0,78,0.00,,,0.00,WUHU216HW,2013-04-02 09:20:00,
2013-04-02 04:25:00,21.2,15.4,30.21,NNW,338,0.0,0.0,78,0.00,,,0.00,WUHU216HW,2013-04-02 09:25:00,
2013-04-02 04:30:00,20.9,15.0,30.20,NNW,338,0.0,0.0,78,0.00,,,0.00,WUHU216HW,2013-04-02 09:30:00,
2013-04-02 04:35:00,21.1,15.2,30.21,NNW,338,0.0,0.0,78,0.00,,,0.00,WUHU216HW,2013-04-02 09:35:00,
2013-04-02 04:40:00,20.9,15.0,30.21,NNW,338,0.0,0.0,78,0.00,,,0.00,WUHU216HW,2013-04-02 09:40:00,
2013-04-02 04:45:00,20.7,14.9,30.21,NNW,338,0.0,0.0,78,0.00,,,0.00,WUHU216HW,2013-04-02 09:45:00,
2013-04-02 04:50:00,20.5,14.7,30.21,NNW,338,0.0,0.0,78,0.00,,,0.00,WUHU216HW,2013-04-02 09:50:00,
2013-04-02 04:55:00,20.3,14.5,30.22,NNW,338,0.0,0.0,78,0.00,,,0.00,WUHU216HW,2013-04-02 09:55:00,
2013-04-02 05:00:00,20.3,14.5,30.22,NNW,338,0.0,0.0,78,0.00,,,0.00,WUHU216HW,2013-04-02 10:00:00,
2013-04-02 05:05:00,20.3,14.5,30.22,NNW,338,0.0,0.0,78,0.00,,,0.00,WUHU216HW,2013-04-02 10:05:00,
2013-04-02 05:10:00,20.2,14.3,30.22,NNW,338,0.0,0.0,78,0.00,,,0.00,WUHU216HW,2013-04-02 10:10:00,
2013-04-02 05:15:00,20.2,14.3,30.22,NNW,338,0.0,0.0,78,0.00,,,0.00,WUHU216HW,2013-04-02 10:15:00,
2013-04-02 05:20:00,20.3,14.9,30.22,NNW,338,0.0,0.0,79,0.00,,,0.00,WUHU216HW,2013-04-02 10:20:00,
2013-04-02 05:25:00,20.3,15.1,30.22,NNW,338,0.0,0.0,80,0.00,,,0.00,WUHU216HW,2013-04-02 10:25:00,
2013-04-02 05:30:00,20.5,15.6,30.22,NNW,338,0.0,0.0,81,0.00,,,0.00,WUHU216HW,2013-04-02 10:30:00,
2013-04-02 05:35:00,20.5,15.6,30.22,NNW,338,0.0,0.0,81,0.00,,,0.00,WUHU216HW,2013-04-02 10:35:00,
2013-04-02 05:40:00,20.5,15.6,30.22,NNW,338,0.0,0.0,81,0.00,,,0.00,WUHU216HW,2013-04-02 10:40:00,
2013-04-02 05:45:00,20.7,15.8,30.22,NNW,338,0.0,0.0,81,0.00,,,0.00,WUHU216HW,2013-04-02 10:45:00,
2013-04-02 05:50:00,20.7,15.5,30.22,NNW,338,0.0,0.0,80,0.00,,,0.00,WUHU216HW,2013-04-02 10:50:00,
2013-04-02 05:55:00,20.9,16.2,30.22,NNW,338,0.0,0.0,82,0.00,,,0.00,WUHU216HW,2013-04-02 10:55:00,
2013-04-02 06:00:00,21.1,16.4,30.22,NNW,338,0.0,0.0,82,0.00,,,0.00,WUHU216HW,2013-04-02 11:00:00,
2013-04-02 06:05:00,21.2,16.6,30.22,NNW,338,0.0,0.0,82,0.00,,,0.00,WUHU216HW,2013-04-02 11:05:00,
2013-04-02 06:10:00,21.2,16.3,30.22,NNW,338,0.0,0.0,81,0.00,,,0.00,WUHU216HW,2013-04-02 11:10:00,
2013-04-02 06:15:00,21.1,16.1,30.23,NNW,338,0.0,0.0,81,0.00,,,0.00,WUHU216HW,2013-04-02 11:15:00,
2013-04-02 06:20:00,21.1,16.1,30.23,NNW,338,0.0,0.0,81,0.00,,,0.00,WUHU216HW,2013-04-02 11:20:00,
2013-04-02 06:25:00,21.1,16.1,30.23,NNW,338,0.0,0.0,81,0.00,,,0.00,WUHU216HW,2013-04-02 11:25:00,
2013-04-02 06:30:00,21.1,16.1,30.23,NNW,338,0.0,0.0,81,0.00,,,0.00,WUHU216HW,2013-04-02 11:30:00,
2013-04-02 06:35:00,20.7,15.8,30.23,NNW,338,0.0,0.0,81,0.00,,,0.00,WUHU216HW,2013-04-02 11:35:00,
2013-04-02 06:40:00,20.5,15.3,30.23,NNW,338,0.0,0.0,80,0.00,,,0.00,WUHU216HW,2013-04-02 11:40:00,
2013-04-02 06:45:00,20.3,15.1,30.23,NNW,338,0.0,0.0,80,0.00,,,0.00,WUHU216HW,2013-04-02 11:45:00,
2013-04-02 06:50:00,20.5,15.6,30.23,NNW,338,0.0,0.0,81,0.00,,,0.00,WUHU216HW,2013-04-02 11:50:00,
2013-04-02 06:55:00,21.1,16.4,30.23,NNW,338,0.0,0.0,82,0.00,,,0.00,WUHU216HW,2013-04-02 11:55:00,
2013-04-02 07:00:00,21.2,16.6,30.23,NNW,338,0.0,0.0,82,0.00,,,0.00,WUHU216HW,2013-04-02 12:00:00,
2013-04-02 07:05:00,20.9,16.2,30.23,NNW,338,0.0,0.0,82,0.00,,,0.00,WUHU216HW,2013-04-02 12:05:00,
2013-04-02 07:10:00,20.9,16.2,30.23,NNW,338,0.0,0.0,82,0.00,,,0.00,WUHU216HW,2013-04-02 12:10:00,
2013-04-02 07:15:00,20.9,16.2,30.23,NNW,338,0.0,0.0,82,0.00,,,0.00,WUHU216HW,2013-04-02 12:15:00,
2013-04-02 07:20:00,21.4,16.7,30.23,NNW,338,0.0,0.0,82,0.00,,,0.00,WUHU216HW,2013-04-02 12:20:00,
2013-04-02 07:25:00,22.0,17.3,30.24,NNW,338,0.0,0.0,82,0.00,,,0.00,WUHU216HW,2013-04-02 12:25:00,
2013-04-02 07:30:00,22.5,17.8,30.24,NNW,338,0.0,0.0,82,0.00,,,0.00,WUHU216HW,2013-04-02 12:30:00,
2013-04-02 07:35:00,23.0,18.1,30.24,NNW,338,0.0,0.0,81,0.00,,,0.00,WUHU216HW,2013-04-02 12:35:00,
2013-04-02 07:40:00,23.2,18.3,30.24,NNW,338,0.0,0.0,81,0.00,,,0.00,WUHU216HW,2013-04-02 12:40:00,
2013-04-02 07:45:00,23.4,18.2,30.24,NNW,338,0.0,0.0,80,0.00,,,0.00,WUHU216HW,2013-04-02 12:45:00,
2013-04-02 07:50:00,23.8,18.5,30.24,NNW,338,0.0,0.0,80,0.00,,,0.00,WUHU216HW,2013-04-02 12:50:00,
2013-04-02 07:55:00,24.1,18.9,30.23,NNW,338,0.0,0.0,80,0.00,,,0.00,WUHU216HW,2013-04-02 12:55:00,
2013-04-02 08:00:00,24.5,19.3,30.23,NNW,338,0.0,0.4,80,0.00,,,0.00,WUHU216HW,2013-04-02 13:00:00,
2013-04-02 08:05:00,25.0,19.8,30.23,NNW,338,0.0,0.4,80,0.00,,,0.00,WUHU216HW,2013-04-02 13:05:00,
2013-04-02 08:10:00,25.6,20.3,30.24,NNW,338,0.0,0.0,80,0.00,,,0.00,WUHU216HW,2013-04-02 13:10:00,
2013-04-02 08:15:00,26.1,20.4,30.24,NNW,338,0.0,0.0,79,0.00,,,0.00,WUHU216HW,2013-04-02 13:15:00,
2013-04-02 08:20:00,26.8,21.2,30.23,NNW,338,0.4,0.4,79,0.00,,,0.00,WUHU216HW,2013-04-02 13:20:00,
2013-04-02 08:25:00,27.4,21.7,30.23,NNW,338,0.0,0.7,79,0.00,,,0.00,WUHU216HW,2013-04-02 13:25:00,
2013-04-02 08:30:00,27.9,22.2,30.24,NNW,338,0.0,0.7,79,0.00,,,0.00,WUHU216HW,2013-04-02 13:30:00,
2013-04-02 08:35:00,28.6,22.6,30.24,NNW,338,0.0,0.7,78,0.00,,,0.00,WUHU216HW,2013-04-02 13:35:00,
2013-04-02 08:40:00,29.3,23.0,30.24,NNW,338,0.4,0.7,77,0.00,,,0.00,WUHU216HW,2013-04-02 13:40:00,
2013-04-02 08:45:00,29.9,23.2,30.24,NNW,338,0.0,0.4,76,0.00,,,0.00,WUHU216HW,2013-04-02 13:45:00,
2013-04-02 08:50:00,30.6,24.0,30.24,NNW,338,0.0,1.1,76,0.00,,,0.00,WUHU216HW,2013-04-02 13:50:00,
2013-04-02 08:55:00,31.3,23.7,30.24,West,270,0.2,1.3,73,0.00,,,0.00,WUHU216HW,2013-04-02 13:55:00,
2013-04-02 09:00:00,32.2,24.8,30.24,South,180,1.8,1.8,74,0.00,,,0.00,WUHU216HW,2013-04-02 14:00:00,
2013-04-02 09:05:00,33.1,25.4,30.24,South,180,2.2,2.7,73,0.00,,,0.00,WUHU216HW,2013-04-02 14:05:00,
2013-04-02 09:10:00,33.8,25.7,30.24,SSE,158,1.8,2.7,72,0.00,,,0.00,WUHU216HW,2013-04-02 14:10:00,
2013-04-02 09:15:00,34.4,25.9,30.24,ESE,113,0.4,2.7,71,0.00,,,0.00,WUHU216HW,2013-04-02 14:15:00,
2013-04-02 09:20:00,35.1,25.9,30.24,SW,225,0.7,3.8,69,0.00,,,0.00,WUHU216HW,2013-04-02 14:20:00,
2013-04-02 09:25:00,36.0,26.1,30.24,South,180,3.1,3.8,67,0.00,,,0.00,WUHU216HW,2013-04-02 14:25:00,
2013-04-02 09:30:00,36.5,25.5,30.24,South,180,1.1,3.4,64,0.00,,,0.00,WUHU216HW,2013-04-02 14:30:00,
2013-04-02 09:35:00,37.1,25.3,30.24,SW,225,1.1,3.4,62,0.00,,,0.00,WUHU216HW,2013-04-02 14:35:00,
2013-04-02 09:40:00,37.6,25.4,30.24,WSW,248,0.4,3.8,61,0.00,,,0.00,WUHU216HW,2013-04-02 14:40:00,
2013-04-02 09:45:00,38.2,25.0,30.24,SW,225,1.3,3.8,59,0.00,,,0.00,WUHU216HW,2013-04-02 14:45:00,
2013-04-02 09:50:00,38.9,26.1,30.24,SSE,158,0.4,3.6,60,0.00,,,0.00,WUHU216HW,2013-04-02 14:50:00,
2013-04-02 09:55:00,39.4,26.2,30.24,SSW,203,1.3,3.6,59,0.00,,,0.00,WUHU216HW,2013-04-02 14:55:00,
2013-04-02 10:00:00,40.0,24.6,30.24,SW,225,2.0,3.6,54,0.00,,,0.00,WUHU216HW,2013-04-02 15:00:00,
2013-04-02 10:05:00,40.3,25.3,30.24,WSW,248,0.9,3.6,55,0.00,,,0.00,WUHU216HW,2013-04-02 15:05:00,
2013-04-02 10:10:00,41.0,23.2,30.24,West,270,0.4,2.0,49,0.00,,,0.00,WUHU216HW,2013-04-02 15:10:00,
2013-04-02 10:15:00,41.0,23.2,30.24,West,270,1.6,1.8,49,0.00,,,0.00,WUHU216HW,2013-04-02 15:15:00,
2013-04-02 10:20:00,42.8,26.5,30.24,SSW,203,1.1,2.0,52,0.00,,,0.00,WUHU216HW,2013-04-02 15:20:00,
2013-04-02 10:25:00,45.0,27.6,30.24,SSE,158,0.9,3.1,50,0.00,,,0.00,WUHU216HW,2013-04-02 15:25:00,
2013-04-02 10:30:00,46.1,28.9,30.24,ESE,113,1.1,3.1,51,0.00,,,0.00,WUHU216HW,2013-04-02 15:30:00,
2013-04-02 10:35:00,46.1,28.4,30.24,South,180,0.9,2.5,50,0.00,,,0.00,WUHU216HW,2013-04-02 15:35:00,
2013-04-02 10:40:00,45.7,27.1,30.24,ESE,113,0.7,2.5,48,0.00,,,0.00,WUHU216HW,2013-04-02 15:40:00,
2013-04-02 10:46:00,44.6,25.6,30.24,SE,135,1.1,2.2,47,0.00,,,0.00,WUHU216HW,2013-04-02 15:46:00,
2013-04-02 10:51:00,45.5,26.9,30.24,ESE,113,1.8,2.2,48,0.00,,,0.00,WUHU216HW,2013-04-02 15:51:00,
2013-04-02 10:56:00,46.6,26.8,30.24,East,90,2.5,3.1,46,0.00,,,0.00,WUHU216HW,2013-04-02 15:56:00,
2013-04-02 11:01:00,47.2,26.7,30.24,ENE,68,2.7,3.4,45,0.00,,,0.00,WUHU216HW,2013-04-02 16:01:00,
2013-04-02 11:06:00,46.3,24.3,30.24,ENE,68,1.1,4.3,42,0.00,,,0.00,WUHU216HW,2013-04-02 16:06:00,
2013-04-02 11:11:00,45.7,24.4,30.24,ENE,68,1.6,4.3,43,0.00,,,0.00,WUHU216HW,2013-04-02 16:11:00,
2013-04-02 11:16:00,47.2,26.7,30.24,SSE,158,0.7,2.7,45,0.00,,,0.00,WUHU216HW,2013-04-02 16:16:00,
2013-04-02 11:21:00,48.4,27.4,30.24,ESE,113,0.2,2.7,44,0.00,,,0.00,WUHU216HW,2013-04-02 16:21:00,
2013-04-02 11:26:00,49.7,28.0,30.23,SSW,203,3.6,3.8,43,0.00,,,0.00,WUHU216HW,2013-04-02 16:26:00,
2013-04-02 11:31:00,51.5,28.5,30.23,SW,225,1.3,3.8,41,0.00,,,0.00,WUHU216HW,2013-04-02 16:31:00,
2013-04-02 11:37:00,52.0,30.1,30.24,SSE,158,1.1,3.6,43,0.00,,,0.00,WUHU216HW,2013-04-02 16:37:00,
2013-04-02 11:42:00,52.6,30.6,30.24,East,90,2.0,3.4,43,0.00,,,0.00,WUHU216HW,2013-04-02 16:42:00,
2013-04-02 11:47:00,51.5,27.9,30.24,ENE,68,1.6,3.4,40,0.00,,,0.00,WUHU216HW,2013-04-02 16:47:00,
2013-04-02 11:52:00,50.8,27.3,30.24,SSW,203,1.8,3.4,40,0.00,,,0.00,WUHU216HW,2013-04-02 16:52:00,
2013-04-02 11:57:00,51.5,25.9,30.23,SSW,203,2.9,2.9,37,0.00,,,0.00,WUHU216HW,2013-04-02 16:57:00,
2013-04-02 12:02:00,52.4,27.4,30.23,West,270,2.9,3.4,38,0.00,,,0.00,WUHU216HW,2013-04-02 17:02:00,
2013-04-02 12:07:00,50.8,26.7,30.23,SW,225,0.7,4.9,39,0.00,,,0.00,WUHU216HW,2013-04-02 17:07:00,
2013-04-02 12:12:00,52.2,28.6,30.23,SSW,203,1.3,4.9,40,0.00,,,0.00,WUHU216HW,2013-04-02 17:12:00,
2013-04-02 12:17:00,54.4,30.5,30.23,South,180,0.4,3.4,40,0.00,,,0.00,WUHU216HW,2013-04-02 17:17:00,
2013-04-02 12:23:00,55.6,31.0,30.22,SE,135,0.9,4.0,39,0.00,,,0.00,WUHU216HW,2013-04-02 17:23:00,
2013-04-02 12:28:00,56.5,30.3,30.22,WSW,248,4.5,6.0,37,0.00,,,0.00,WUHU216HW,2013-04-02 17:28:00,
2013-04-02 12:33:00,56.5,26.8,30.22,SSW,203,1.3,6.0,32,0.00,,,0.00,WUHU216HW,2013-04-02 17:33:00,
2013-04-02 12:38:00,55.6,29.5,30.22,SSW,203,0.4,4.0,37,0.00,,,0.00,WUHU216HW,2013-04-02 17:38:00,
2013-04-02 12:43:00,56.2,27.9,30.22,WNW,293,3.1,4.0,34,0.00,,,0.00,WUHU216HW,2013-04-02 17:43:00,
2013-04-02 12:48:00,56.2,27.9,30.22,SSW,203,1.6,5.4,34,0.00,,,0.00,WUHU216HW,2013-04-02 17:48:00,
2013-04-02 12:53:00,56.3,29.5,30.22,WSW,248,0.4,5.4,36,0.00,,,0.00,WUHU216HW,2013-04-02 17:53:00,
2013-04-02 12:58:00,54.4,27.1,30.22,West,270,2.5,4.9,35,0.00,,,0.00,WUHU216HW,2013-04-02 17:58:00,
2013-04-02 13:03:00,52.4,26.7,30.22,SE,135,1.8,4.9,37,0.00,,,0.00,WUHU216HW,2013-04-02 18:03:00,
2013-04-02 13:08:00,53.5,29.1,30.22,SSE,158,2.0,3.6,39,0.00,,,0.00,WUHU216HW,2013-04-02 18:08:00,
2013-04-02 13:13:00,52.0,25.7,30.21,WNW,293,3.8,3.8,36,0.00,,,0.00,WUHU216HW,2013-04-02 18:13:00,
2013-04-02 13:18:00,49.3,24.7,30.21,East,90,1.1,4.9,38,0.00,,,0.00,WUHU216HW,2013-04-02 18:18:00,
2013-04-02 13:23:00,49.1,25.1,30.21,East,90,1.1,4.9,39,0.00,,,0.00,WUHU216HW,2013-04-02 18:23:00,
2013-04-02 13:28:00,50.8,27.8,30.21,SW,225,1.8,2.9,41,0.00,,,0.00,WUHU216HW,2013-04-02 18:28:00,
2013-04-02 13:33:00,50.8,25.2,30.21,West,270,2.5,4.5,37,0.00,,,0.00,WUHU216HW,2013-04-02 18:33:00,
2013-04-02 13:38:00,49.9,25.1,30.20,WNW,293,2.5,4.5,38,0.00,,,0.00,WUHU216HW,2013-04-02 18:38:00,
2013-04-02 13:43:00,50.4,27.0,30.20,South,180,2.5,4.5,40,0.00,,,0.00,WUHU216HW,2013-04-02 18:43:00,
2013-04-02 13:48:00,51.8,28.8,30.20,South,180,1.8,4.9,41,0.00,,,0.00,WUHU216HW,2013-04-02 18:48:00,
2013-04-02 13:53:00,52.6,28.9,30.20,South,180,2.5,4.9,40,0.00,,,0.00,WUHU216HW,2013-04-02 18:53:00,
2013-04-02 13:59:00,51.8,26.2,30.20,NW,315,3.6,4.7,37,0.00,,,0.00,WUHU216HW,2013-04-02 18:59:00,
2013-04-02 14:04:00,51.5,27.3,30.20,SW,225,0.9,4.5,39,0.00,,,0.00,WUHU216HW,2013-04-02 19:04:00,
2013-04-02 14:09:00,51.5,27.3,30.20,SSW,203,0.7,4.3,39,0.00,,,0.00,WUHU216HW,2013-04-02 19:09:00,
2013-04-02 14:14:00,50.4,25.6,30.19,WNW,293,2.5,4.3,38,0.00,,,0.00,WUHU216HW,2013-04-02 19:14:00,
2013-04-02 14:19:00,50.2,26.1,30.19,NW,315,1.1,3.4,39,0.00,,,0.00,WUHU216HW,2013-04-02 19:19:00,
2013-04-02 14:24:00,49.3,26.0,30.19,WSW,248,2.2,3.4,40,0.00,,,0.00,WUHU216HW,2013-04-02 19:24:00,
2013-04-02 14:29:00,50.4,26.3,30.19,ENE,68,3.4,5.4,39,0.00,,,0.00,WUHU216HW,2013-04-02 19:29:00,
2013-04-02 14:34:00,50.2,26.8,30.19,West,270,1.8,5.4,40,0.00,,,0.00,WUHU216HW,2013-04-02 19:34:00,
2013-04-02 14:39:00,50.0,26.6,30.19,North,0,2.0,4.5,40,0.00,,,0.00,WUHU216HW,2013-04-02 19:39:00,
2013-04-02 14:44:00,50.9,28.0,30.19,SW,225,1.8,4.5,41,0.00,,,0.00,WUHU216HW,2013-04-02 19:44:00,
2013-04-02 14:49:00,51.5,26.6,30.19,NW,315,1.8,5.1,38,0.00,,,0.00,WUHU216HW,2013-04-02 19:49:00,
2013-04-02 14:54:00,51.1,28.2,30.19,SSW,203,1.8,5.1,41,0.00,,,0.00,WUHU216HW,2013-04-02 19:54:00,
2013-04-02 14:59:00,52.9,29.8,30.19,SSE,158,2.2,4.9,41,0.00,,,0.00,WUHU216HW,2013-04-02 19:59:00,
2013-04-02 15:37:00,54.5,29.4,30.18,East,90,0.7,0.7,38,0.00,,,0.00,WUHU216HW,2013-04-02 20:37:00,
2013-04-02 15:42:00,53.5,27.6,30.18,SE,135,0.4,4.0,37,0.00,,,0.00,WUHU216HW,2013-04-02 20:42:00,
2013-04-02 15:47:00,53.6,27.8,30.18,NE,45,0.9,4.0,37,0.00,,,0.00,WUHU216HW,2013-04-02 20:47:00,
2013-04-02 16:00:00,51.1,26.3,30.18,NNE,23,2.5,2.5,38,0.00,,,0.00,WUHU216HW,2013-04-02 21:00:00,
2013-04-02 16:05:00,50.6,25.7,30.17,North,0,1.8,4.0,38,0.00,,,0.00,WUHU216HW,2013-04-02 21:05:00,
2013-04-02 16:10:00,50.8,27.3,30.17,North,0,1.6,4.0,40,0.00,,,0.00,WUHU216HW,2013-04-02 21:10:00,
2013-04-02 16:15:00,51.3,27.1,30.17,SE,135,1.3,4.3,39,0.00,,,0.00,WUHU216HW,2013-04-02 21:15:00,
2013-04-02 16:20:00,52.6,28.9,30.17,East,90,0.4,4.3,40,0.00,,,0.00,WUHU216HW,2013-04-02 21:20:00,
2013-04-02 16:25:00,53.6,28.5,30.17,WNW,293,0.7,4.0,38,0.00,,,0.00,WUHU216HW,2013-04-02 21:25:00,
2013-04-02 16:30:00,53.3,27.6,30.17,East,90,3.4,4.0,37,0.00,,,0.00,WUHU216HW,2013-04-02 21:30:00,
2013-04-02 16:35:00,52.6,26.8,30.17,NE,45,1.3,4.0,37,0.00,,,0.00,WUHU216HW,2013-04-02 21:35:00,
2013-04-02 16:40:00,52.2,26.6,30.16,East,90,4.0,6.7,37,0.00,,,0.00,WUHU216HW,2013-04-02 21:40:00,
2013-04-02 16:45:00,51.8,26.2,30.16,WNW,293,1.1,6.7,37,0.00,,,0.00,WUHU216HW,2013-04-02 21:45:00,
2013-04-02 16:50:00,52.0,27.1,30.16,NNE,23,2.5,5.6,38,0.00,,,0.00,WUHU216HW,2013-04-02 21:50:00,
2013-04-02 16:55:00,52.2,27.2,30.16,ENE,68,6.9,6.9,38,0.00,,,0.00,WUHU216HW,2013-04-02 21:55:00,
2013-04-02 17:00:00,52.6,27.5,30.16,East,90,2.7,6.9,38,0.00,,,0.00,WUHU216HW,2013-04-02 22:00:00,
2013-04-02 17:05:00,52.4,26.7,30.16,North,0,1.1,5.1,37,0.00,,,0.00,WUHU216HW,2013-04-02 22:05:00,
2013-04-02 17:10:00,51.8,26.9,30.16,West,270,1.8,3.4,38,0.00,,,0.00,WUHU216HW,2013-04-02 22:10:00,
2013-04-02 17:15:00,51.5,26.6,30.16,West,270,1.1,3.4,38,0.00,,,0.00,WUHU216HW,2013-04-02 22:15:00,
2013-04-02 17:20:00,52.6,28.9,30.16,SW,225,0.4,4.0,40,0.00,,,0.00,WUHU216HW,2013-04-02 22:20:00,
2013-04-02 17:25:00,53.6,28.5,30.16,WSW,248,0.4,4.0,38,0.00,,,0.00,WUHU216HW,2013-04-02 22:25:00,
2013-04-02 17:30:00,53.8,28.0,30.16,NNE,23,2.7,2.7,37,0.00,,,0.00,WUHU216HW,2013-04-02 22:30:00,
2013-04-02 17:35:00,52.9,27.9,30.16,ENE,68,0.4,2.7,38,0.00,,,0.00,WUHU216HW,2013-04-02 22:35:00,
2013-04-02 17:40:00,53.1,28.7,30.16,East,90,2.2,2.7,39,0.00,,,0.00,WUHU216HW,2013-04-02 22:40:00,
2013-04-02 17:45:00,53.6,29.2,30.16,ESE,113,0.7,2.5,39,0.00,,,0.00,WUHU216HW,2013-04-02 22:45:00,
2013-04-02 17:50:00,53.6,28.5,30.16,WSW,248,0.2,2.5,38,0.00,,,0.00,WUHU216HW,2013-04-02 22:50:00,
2013-04-02 17:55:00,53.3,26.8,30.16,North,0,0.4,1.8,36,0.00,,,0.00,WUHU216HW,2013-04-02 22:55:00,
2013-04-02 18:01:00,52.4,27.4,30.16,East,90,1.6,2.2,38,0.00,,,0.00,WUHU216HW,2013-04-02 23:01:00,
2013-04-02 18:06:00,52.7,28.4,30.16,SW,225,2.5,3.1,39,0.00,,,0.00,WUHU216HW,2013-04-02 23:06:00,
2013-04-02 18:11:00,52.9,28.5,30.16,South,180,2.5,3.1,39,0.00,,,0.00,WUHU216HW,2013-04-02 23:11:00,
2013-04-02 18:16:00,53.3,28.9,30.16,SW,225,0.4,4.3,39,0.00,,,0.00,WUHU216HW,2013-04-02 23:16:00,
2013-04-02 18:21:00,53.5,27.6,30.16,WSW,248,0.4,4.3,37,0.00,,,0.00,WUHU216HW,2013-04-02 23:21:00,
2013-04-02 18:26:00,52.2,26.6,30.16,WNW,293,1.1,3.1,37,0.00,,,0.00,WUHU216HW,2013-04-02 23:26:00,
2013-04-02 18:32:00,51.8,27.5,30.16,WNW,293,0.4,2.9,39,0.00,,,0.00,WUHU216HW,2013-04-02 23:32:00,
2013-04-02 18:37:00,51.5,26.6,30.16,NW,315,1.8,2.5,38,0.00,,,0.00,WUHU216HW,2013-04-02 23:37:00,
2013-04-02 18:42:00,51.1,26.9,30.16,WNW,293,0.4,2.5,39,0.00,,,0.00,WUHU216HW,2013-04-02 23:42:00,
2013-04-02 19:00:00,50.6,27.1,30.16,SSE,158,0.4,0.4,40,0.00,,,0.00,WUHU216HW,2013-04-03 00:00:00,
2013-04-02 19:05:00,50.4,27.0,30.16,SE,135,0.9,1.6,40,0.00,,,0.00,WUHU216HW,2013-04-03 00:05:00,
2013-04-02 19:10:00,50.4,27.6,30.16,SE,135,0.7,1.6,41,0.00,,,0.00,WUHU216HW,2013-04-03 00:10:00,
2013-04-02 19:15:00,50.0,27.2,30.16,SE,135,0.0,1.1,41,0.00,,,0.00,WUHU216HW,2013-04-03 00:15:00,
2013-04-02 19:20:00,49.7,26.3,30.16,SE,135,0.2,0.7,40,0.00,,,0.00,WUHU216HW,2013-04-03 00:20:00,
2013-04-02 19:25:00,49.3,26.0,30.16,South,180,0.4,1.6,40,0.00,,,0.00,WUHU216HW,2013-04-03 00:25:00,
2013-04-02 19:30:00,48.8,26.0,30.16,South,180,0.2,1.6,41,0.00,,,0.00,WUHU216HW,2013-04-03 00:30:00,
2013-04-02 19:35:00,48.4,25.8,30.16,ESE,113,1.3,1.6,41,0.00,,,0.00,WUHU216HW,2013-04-03 00:35:00,
2013-04-02 19:40:00,48.1,25.9,30.16,East,90,1.1,2.7,42,0.00,,,0.00,WUHU216HW,2013-04-03 00:40:00,
2013-04-02 19:46:00,47.9,25.7,30.16,East,90,0.7,2.7,42,0.00,,,0.00,WUHU216HW,2013-04-03 00:46:00,
2013-04-02 19:51:00,47.5,25.5,30.16,East,90,0.4,1.3,42,0.00,,,0.00,WUHU216HW,2013-04-03 00:51:00,
2013-04-02 19:57:00,47.2,25.7,30.16,East,90,1.1,2.2,43,0.00,,,0.00,WUHU216HW,2013-04-03 00:57:00,
2013-04-02 20:02:00,46.8,25.4,30.15,East,90,0.0,2.2,43,0.00,,,0.00,WUHU216HW,2013-04-03 01:02:00,
2013-04-02 20:07:00,46.3,24.8,30.16,East,90,1.1,1.3,43,0.00,,,0.00,WUHU216HW,2013-04-03 01:07:00,
2013-04-02 20:12:00,45.9,24.6,30.15,East,90,0.9,1.8,43,0.00,,,0.00,WUHU216HW,2013-04-03 01:12:00,
2013-04-02 20:17:00,45.7,24.9,30.16,ESE,113,0.9,2.0,44,0.00,,,0.00,WUHU216HW,2013-04-03 01:17:00,
2013-04-02 20:22:00,45.5,24.8,30.16,ESE,113,1.1,2.0,44,0.00,,,0.00,WUHU216HW,2013-04-03 01:22:00,
2013-04-02 20:27:00,45.2,24.4,30.16,ESE,113,0.4,2.0,44,0.00,,,0.00,WUHU216HW,2013-04-03 01:27:00,
2013-04-02 20:32:00,44.8,24.7,30.16,ESE,113,0.2,1.3,45,0.00,,,0.00,WUHU216HW,2013-04-03 01:32:00,
2013-04-02 20:37:00,44.6,24.5,30.16,ESE,113,1.1,2.0,45,0.00,,,0.00,WUHU216HW,2013-04-03 01:37:00,
2013-04-02 20:42:00,44.5,24.3,30.16,ESE,113,0.4,2.2,45,0.00,,,0.00,WUHU216HW,2013-04-03 01:42:00,
2013-04-02 20:47:00,44.3,24.1,30.16,East,90,1.3,2.2,45,0.00,,,0.00,WUHU216HW,2013-04-03 01:47:00,
2013-04-02 20:52:00,44.3,24.7,30.16,ESE,113,1.1,2.5,46,0.00,,,0.00,WUHU216HW,2013-04-03 01:52:00,
2013-04-02 20:57:00,44.1,24.6,30.17,ESE,113,0.4,2.5,46,0.00,,,0.00,WUHU216HW,2013-04-03 01:57:00,
2013-04-02 21:02:00,43.9,24.4,30.17,ESE,113,0.0,1.6,46,0.00,,,0.00,WUHU216HW,2013-04-03 02:02:00,
2013-04-02 21:07:00,43.6,24.0,30.17,ESE,113,0.4,1.6,46,0.00,,,0.00,WUHU216HW,2013-04-03 02:07:00,
2013-04-02 21:12:00,43.2,24.3,30.17,ESE,113,2.0,2.0,47,0.00,,,0.00,WUHU216HW,2013-04-03 02:12:00,
2013-04-02 21:17:00,43.2,24.3,30.17,East,90,0.7,2.2,47,0.00,,,0.00,WUHU216HW,2013-04-03 02:17:00,
2013-04-02 21:22:00,43.2,24.3,30.17,SE,135,1.3,2.2,47,0.00,,,0.00,WUHU216HW,2013-04-03 02:22:00,
2013-04-02 21:27:00,43.2,24.3,30.17,East,90,0.9,2.5,47,0.00,,,0.00,WUHU216HW,2013-04-03 02:27:00,
2013-04-02 21:33:00,42.8,23.9,30.17,East,90,0.7,2.5,47,0.00,,,0.00,WUHU216HW,2013-04-03 02:33:00,
2013-04-02 21:38:00,42.7,23.8,30.18,East,90,1.8,1.8,47,0.00,,,0.00,WUHU216HW,2013-04-03 02:38:00,
2013-04-02 21:43:00,42.3,23.9,30.18,East,90,0.4,2.0,48,0.00,,,0.00,WUHU216HW,2013-04-03 02:43:00,
2013-04-02 21:48:00,42.1,23.8,30.18,East,90,1.1,2.5,48,0.00,,,0.00,WUHU216HW,2013-04-03 02:48:00,
2013-04-02 21:53:00,41.9,24.1,30.18,East,90,2.2,2.5,49,0.00,,,0.00,WUHU216HW,2013-04-03 02:53:00,
2013-04-02 21:58:00,41.9,24.1,30.18,East,90,2.9,3.4,49,0.00,,,0.00,WUHU216HW,2013-04-03 02:58:00,
2013-04-02 22:03:00,42.1,24.3,30.19,ESE,113,1.3,3.4,49,0.00,,,0.00,WUHU216HW,2013-04-03 03:03:00,
2013-04-02 22:08:00,41.9,24.1,30.19,East,90,2.5,4.0,49,0.00,,,0.00,WUHU216HW,2013-04-03 03:08:00,
2013-04-02 22:13:00,42.1,24.3,30.19,East,90,5.1,5.1,49,0.00,,,0.00,WUHU216HW,2013-04-03 03:13:00,
2013-04-02 22:18:00,42.1,23.8,30.19,ENE,68,5.1,5.1,48,0.00,,,0.00,WUHU216HW,2013-04-03 03:18:00,
2013-04-02 22:23:00,42.1,23.8,30.19,East,90,3.1,6.9,48,0.00,,,0.00,WUHU216HW,2013-04-03 03:23:00,
2013-04-02 22:28:00,42.1,23.8,30.19,East,90,1.8,6.9,48,0.00,,,0.00,WUHU216HW,2013-04-03 03:28:00,
2013-04-02 22:33:00,41.8,23.4,30.19,ESE,113,3.4,4.5,48,0.00,,,0.00,WUHU216HW,2013-04-03 03:33:00,
2013-04-02 22:38:00,41.6,23.2,30.19,East,90,4.9,6.3,48,0.00,,,0.00,WUHU216HW,2013-04-03 03:38:00,
2013-04-02 22:43:00,41.4,23.0,30.19,ENE,68,2.7,6.3,48,0.00,,,0.00,WUHU216HW,2013-04-03 03:43:00,
2013-04-02 22:48:00,41.2,23.4,30.19,East,90,2.9,5.1,49,0.00,,,0.00,WUHU216HW,2013-04-03 03:48:00,
2013-04-02 22:53:00,40.9,23.0,30.19,SSE,158,3.4,4.9,49,0.00,,,0.00,WUHU216HW,2013-04-03 03:53:00,
2013-04-02 22:58:00,40.7,23.0,30.19,WSW,248,4.9,4.9,49,0.00,,,0.00,WUHU216HW,2013-04-03 03:58:00,
2013-04-02 23:00:00,40.7,23.0,30.19,ESE,113,6.3,6.7,49,0.00,,,0.00,WUHU216HW,2013-04-03 04:00:00,
2013-04-02 23:05:00,40.5,22.8,30.19,SE,135,2.5,6.7,49,0.00,,,0.00,WUHU216HW,2013-04-03 04:05:00,
2013-04-02 23:10:00,40.3,22.6,30.20,ESE,113,4.0,5.8,49,0.00,,,0.00,WUHU216HW,2013-04-03 04:10:00,
2013-04-02 23:15:00,40.1,22.4,30.20,ESE,113,1.1,5.8,49,0.00,,,0.00,WUHU216HW,2013-04-03 04:15:00,
2013-04-02 23:20:00,40.0,22.8,30.20,ESE,113,3.4,5.8,50,0.00,,,0.00,WUHU216HW,2013-04-03 04:20:00,
2013-04-02 23:25:00,39.8,22.6,30.20,SE,135,2.7,5.8,50,0.00,,,0.00,WUHU216HW,2013-04-03 04:25:00,
2013-04-02 23:30:00,39.6,22.5,30.20,SE,135,2.5,6.3,50,0.00,,,0.00,WUHU216HW,2013-04-03 04:30:00,
2013-04-02 23:35:00,39.4,22.8,30.20,East,90,2.7,6.3,51,0.00,,,0.00,WUHU216HW,2013-04-03 04:35:00,
2013-04-02 23:40:00,39.2,22.6,30.20,SSE,158,4.7,6.7,51,0.00,,,0.00,WUHU216HW,2013-04-03 04:40:00,
2013-04-02 23:45:00,39.1,22.9,30.20,ESE,113,4.3,6.9,52,0.00,,,0.00,WUHU216HW,2013-04-03 04:45:00,
2013-04-02 23:50:00,38.9,22.7,30.20,East,90,2.0,6.9,52,0.00,,,0.00,WUHU216HW,2013-04-03 04:50:00,
2013-04-02 23:55:00,38.5,22.3,30.20,SE,135,2.5,4.9,52,0.00,,,0.00,WUHU216HW,2013-04-03 04:55:00,